sensor_id;sensor_type;location;lat;lon;timestamp;P1;durP1;ratioP1;P2;durP2;ratioP2
52858;SDS011;38721;53.098;6.596;2022-11-03T00:02:24;10.23;;;2.50;;
52858;SDS011;38721;53.098;6.596;2022-11-03T00:04:50;12.10;;;2.55;;
52858;SDS011;38721;53.098;6.596;2022-11-03T00:07:19;8.48;;;2.80;;
52858;SDS011;38721;53.098;6.596;2022-11-03T00:09:45;14.38;;;3.30;;
52858;SDS011;38721;53.098;6.596;2022-11-03T00:12:11;14.07;;;3.95;;
52858;SDS011;38721;53.098;6.596;2022-11-03T00:14:37;13.05;;;3.17;;
52858;SDS011;38721;53.098;6.596;2022-11-03T00:17:03;15.27;;;3.25;;
52858;SDS011;38721;53.098;6.596;2022-11-03T00:19:28;10.60;;;3.22;;
52858;SDS011;38721;53.098;6.596;2022-11-03T00:21:54;25.58;;;3.40;;
52858;SDS011;38721;53.098;6.596;2022-11-03T00:24:22;15.27;;;2.95;;
52858;SDS011;38721;53.098;6.596;2022-11-03T00:26:48;8.75;;;2.55;;
52858;SDS011;38721;53.098;6.596;2022-11-03T00:29:17;12.13;;;2.83;;
52858;SDS011;38721;53.098;6.596;2022-11-03T00:31:43;11.15;;;2.88;;
52858;SDS011;38721;53.098;6.596;2022-11-03T00:34:09;9.35;;;2.60;;
52858;SDS011;38721;53.098;6.596;2022-11-03T00:36:39;12.93;;;2.92;;
52858;SDS011;38721;53.098;6.596;2022-11-03T00:39:07;11.60;;;3.03;;
52858;SDS011;38721;53.098;6.596;2022-11-03T00:41:33;11.82;;;3.47;;
52858;SDS011;38721;53.098;6.596;2022-11-03T00:43:59;12.68;;;3.67;;
52858;SDS011;38721;53.098;6.596;2022-11-03T00:46:25;8.35;;;2.63;;
52858;SDS011;38721;53.098;6.596;2022-11-03T00:48:51;11.15;;;2.95;;
52858;SDS011;38721;53.098;6.596;2022-11-03T00:51:27;15.07;;;2.97;;
52858;SDS011;38721;53.098;6.596;2022-11-03T00:53:58;13.32;;;2.50;;
52858;SDS011;38721;53.098;6.596;2022-11-03T00:56:26;10.85;;;2.40;;
52858;SDS011;38721;53.098;6.596;2022-11-03T00:58:54;15.48;;;2.75;;
52858;SDS011;38721;53.098;6.596;2022-11-03T01:01:22;14.55;;;3.47;;
52858;SDS011;38721;53.098;6.596;2022-11-03T01:03:50;13.38;;;2.58;;
52858;SDS011;38721;53.098;6.596;2022-11-03T01:06:37;11.35;;;2.55;;
52858;SDS011;38721;53.098;6.596;2022-11-03T01:14:28;11.23;;;2.50;;
52858;SDS011;38721;53.098;6.596;2022-11-03T01:16:58;15.95;;;2.85;;
52858;SDS011;38721;53.098;6.596;2022-11-03T01:19:24;11.30;;;2.95;;
52858;SDS011;38721;53.098;6.596;2022-11-03T01:21:51;12.07;;;3.05;;
52858;SDS011;38721;53.098;6.596;2022-11-03T01:24:17;12.35;;;2.88;;
52858;SDS011;38721;53.098;6.596;2022-11-03T01:26:45;16.45;;;3.00;;
52858;SDS011;38721;53.098;6.596;2022-11-03T01:29:10;17.55;;;3.42;;
52858;SDS011;38721;53.098;6.596;2022-11-03T01:31:36;12.98;;;2.50;;
52858;SDS011;38721;53.098;6.596;2022-11-03T01:34:04;10.63;;;2.70;;
52858;SDS011;38721;53.098;6.596;2022-11-03T01:36:30;11.80;;;2.97;;
52858;SDS011;38721;53.098;6.596;2022-11-03T01:38:56;9.57;;;2.28;;
52858;SDS011;38721;53.098;6.596;2022-11-03T01:41:26;11.93;;;2.60;;
52858;SDS011;38721;53.098;6.596;2022-11-03T01:49:16;14.00;;;2.90;;
52858;SDS011;38721;53.098;6.596;2022-11-03T01:51:48;14.45;;;3.10;;
52858;SDS011;38721;53.098;6.596;2022-11-03T01:54:20;14.10;;;3.83;;
52858;SDS011;38721;53.098;6.596;2022-11-03T01:56:48;12.98;;;3.13;;
52858;SDS011;38721;53.098;6.596;2022-11-03T01:59:15;16.17;;;2.90;;
52858;SDS011;38721;53.098;6.596;2022-11-03T02:01:42;17.83;;;3.38;;
52858;SDS011;38721;53.098;6.596;2022-11-03T02:04:11;13.60;;;3.08;;
52858;SDS011;38721;53.098;6.596;2022-11-03T02:06:40;15.95;;;2.95;;
52858;SDS011;38721;53.098;6.596;2022-11-03T02:09:07;11.55;;;2.50;;
52858;SDS011;38721;53.098;6.596;2022-11-03T02:11:36;14.43;;;3.28;;
52858;SDS011;38721;53.098;6.596;2022-11-03T02:16:52;13.88;;;3.67;;
52858;SDS011;38721;53.098;6.596;2022-11-03T02:19:26;9.95;;;2.47;;
52858;SDS011;38721;53.098;6.596;2022-11-03T02:25:15;11.93;;;2.83;;
52858;SDS011;38721;53.098;6.596;2022-11-03T02:27:54;12.30;;;2.97;;
52858;SDS011;38721;53.098;6.596;2022-11-03T02:30:20;15.15;;;3.10;;
52858;SDS011;38721;53.098;6.596;2022-11-03T02:35:30;15.10;;;3.17;;
52858;SDS011;38721;53.098;6.596;2022-11-03T02:38:08;9.13;;;2.70;;
52858;SDS011;38721;53.098;6.596;2022-11-03T02:40:40;11.68;;;2.50;;
52858;SDS011;38721;53.098;6.596;2022-11-03T02:43:10;11.40;;;2.45;;
52858;SDS011;38721;53.098;6.596;2022-11-03T02:45:38;12.38;;;3.05;;
52858;SDS011;38721;53.098;6.596;2022-11-03T02:48:04;14.27;;;2.90;;
52858;SDS011;38721;53.098;6.596;2022-11-03T02:50:32;14.18;;;3.28;;
52858;SDS011;38721;53.098;6.596;2022-11-03T02:52:58;11.32;;;3.08;;
52858;SDS011;38721;53.098;6.596;2022-11-03T02:58:04;14.57;;;3.22;;
52858;SDS011;38721;53.098;6.596;2022-11-03T03:00:45;11.98;;;3.17;;
52858;SDS011;38721;53.098;6.596;2022-11-03T03:03:52;9.52;;;2.85;;
52858;SDS011;38721;53.098;6.596;2022-11-03T03:06:32;9.68;;;2.75;;
52858;SDS011;38721;53.098;6.596;2022-11-03T03:09:04;14.73;;;3.40;;
52858;SDS011;38721;53.098;6.596;2022-11-03T03:11:34;12.20;;;2.55;;
52858;SDS011;38721;53.098;6.596;2022-11-03T03:14:04;13.23;;;3.35;;
52858;SDS011;38721;53.098;6.596;2022-11-03T03:16:34;8.95;;;2.55;;
52858;SDS011;38721;53.098;6.596;2022-11-03T03:19:27;14.10;;;2.80;;
52858;SDS011;38721;53.098;6.596;2022-11-03T03:22:13;14.80;;;3.10;;
52858;SDS011;38721;53.098;6.596;2022-11-03T03:27:41;11.38;;;2.95;;
52858;SDS011;38721;53.098;6.596;2022-11-03T03:30:10;17.00;;;2.90;;
52858;SDS011;38721;53.098;6.596;2022-11-03T03:32:38;13.18;;;3.35;;
52858;SDS011;38721;53.098;6.596;2022-11-03T03:35:09;9.80;;;3.25;;
52858;SDS011;38721;53.098;6.596;2022-11-03T03:37:42;11.05;;;3.10;;
52858;SDS011;38721;53.098;6.596;2022-11-03T03:40:11;11.35;;;2.70;;
52858;SDS011;38721;53.098;6.596;2022-11-03T03:42:43;12.63;;;2.95;;
52858;SDS011;38721;53.098;6.596;2022-11-03T03:45:11;17.10;;;3.10;;
52858;SDS011;38721;53.098;6.596;2022-11-03T03:47:38;12.10;;;3.00;;
52858;SDS011;38721;53.098;6.596;2022-11-03T03:50:04;13.25;;;3.35;;
52858;SDS011;38721;53.098;6.596;2022-11-03T03:52:32;13.60;;;3.05;;
52858;SDS011;38721;53.098;6.596;2022-11-03T03:55:00;14.48;;;3.20;;
52858;SDS011;38721;53.098;6.596;2022-11-03T03:57:26;10.35;;;3.08;;
52858;SDS011;38721;53.098;6.596;2022-11-03T03:59:53;8.48;;;3.10;;
52858;SDS011;38721;53.098;6.596;2022-11-03T04:02:19;10.02;;;3.13;;
52858;SDS011;38721;53.098;6.596;2022-11-03T04:04:45;9.95;;;2.67;;
52858;SDS011;38721;53.098;6.596;2022-11-03T04:07:10;11.55;;;3.53;;
52858;SDS011;38721;53.098;6.596;2022-11-03T04:09:55;10.85;;;2.78;;
52858;SDS011;38721;53.098;6.596;2022-11-03T04:12:21;17.50;;;3.30;;
52858;SDS011;38721;53.098;6.596;2022-11-03T04:15:05;6.95;;;2.63;;
52858;SDS011;38721;53.098;6.596;2022-11-03T04:17:50;10.85;;;3.42;;
52858;SDS011;38721;53.098;6.596;2022-11-03T04:20:34;16.60;;;3.70;;
52858;SDS011;38721;53.098;6.596;2022-11-03T04:23:18;7.70;;;2.97;;
52858;SDS011;38721;53.098;6.596;2022-11-03T04:25:49;11.55;;;3.42;;
52858;SDS011;38721;53.098;6.596;2022-11-03T04:28:16;12.02;;;3.20;;
52858;SDS011;38721;53.098;6.596;2022-11-03T04:30:42;11.13;;;2.97;;
52858;SDS011;38721;53.098;6.596;2022-11-03T04:33:13;11.88;;;3.58;;
52858;SDS011;38721;53.098;6.596;2022-11-03T04:35:40;12.10;;;3.97;;
52858;SDS011;38721;53.098;6.596;2022-11-03T04:40:59;8.43;;;2.65;;
52858;SDS011;38721;53.098;6.596;2022-11-03T04:43:34;9.80;;;3.28;;
52858;SDS011;38721;53.098;6.596;2022-11-03T04:46:07;11.30;;;2.53;;
52858;SDS011;38721;53.098;6.596;2022-11-03T04:48:35;12.25;;;3.00;;
52858;SDS011;38721;53.098;6.596;2022-11-03T04:51:04;13.20;;;3.33;;
52858;SDS011;38721;53.098;6.596;2022-11-03T04:53:39;11.27;;;3.17;;
52858;SDS011;38721;53.098;6.596;2022-11-03T04:56:13;12.60;;;3.20;;
52858;SDS011;38721;53.098;6.596;2022-11-03T04:58:41;17.25;;;3.33;;
52858;SDS011;38721;53.098;6.596;2022-11-03T05:01:08;13.50;;;2.85;;
52858;SDS011;38721;53.098;6.596;2022-11-03T05:03:41;11.90;;;3.33;;
52858;SDS011;38721;53.098;6.596;2022-11-03T05:06:13;13.32;;;2.90;;
52858;SDS011;38721;53.098;6.596;2022-11-03T05:08:46;16.00;;;3.20;;
52858;SDS011;38721;53.098;6.596;2022-11-03T05:11:28;9.10;;;2.95;;
52858;SDS011;38721;53.098;6.596;2022-11-03T05:14:14;11.23;;;3.20;;
52858;SDS011;38721;53.098;6.596;2022-11-03T05:16:51;8.77;;;2.83;;
52858;SDS011;38721;53.098;6.596;2022-11-03T05:19:22;9.85;;;2.58;;
52858;SDS011;38721;53.098;6.596;2022-11-03T05:21:51;11.43;;;3.30;;
52858;SDS011;38721;53.098;6.596;2022-11-03T05:24:20;13.38;;;3.35;;
52858;SDS011;38721;53.098;6.596;2022-11-03T05:26:49;14.90;;;3.50;;
52858;SDS011;38721;53.098;6.596;2022-11-03T05:32:11;10.65;;;3.05;;
52858;SDS011;38721;53.098;6.596;2022-11-03T05:34:43;10.85;;;3.45;;
52858;SDS011;38721;53.098;6.596;2022-11-03T05:37:24;16.10;;;3.47;;
52858;SDS011;38721;53.098;6.596;2022-11-03T05:39:58;13.43;;;3.92;;
52858;SDS011;38721;53.098;6.596;2022-11-03T05:42:44;13.93;;;2.90;;
52858;SDS011;38721;53.098;6.596;2022-11-03T05:45:25;12.57;;;3.00;;
52858;SDS011;38721;53.098;6.596;2022-11-03T05:47:55;14.88;;;4.03;;
52858;SDS011;38721;53.098;6.596;2022-11-03T05:50:23;13.32;;;2.92;;
52858;SDS011;38721;53.098;6.596;2022-11-03T05:52:51;12.13;;;2.95;;
52858;SDS011;38721;53.098;6.596;2022-11-03T05:55:26;12.52;;;3.40;;
52858;SDS011;38721;53.098;6.596;2022-11-03T05:57:56;13.40;;;3.10;;
52858;SDS011;38721;53.098;6.596;2022-11-03T06:00:31;11.95;;;2.85;;
52858;SDS011;38721;53.098;6.596;2022-11-03T06:03:01;9.65;;;3.08;;
52858;SDS011;38721;53.098;6.596;2022-11-03T06:05:29;8.65;;;2.75;;
52858;SDS011;38721;53.098;6.596;2022-11-03T06:07:58;12.48;;;3.30;;
52858;SDS011;38721;53.098;6.596;2022-11-03T06:10:30;13.38;;;3.35;;
52858;SDS011;38721;53.098;6.596;2022-11-03T06:13:17;11.23;;;3.08;;
52858;SDS011;38721;53.098;6.596;2022-11-03T06:15:57;13.00;;;3.42;;
52858;SDS011;38721;53.098;6.596;2022-11-03T06:18:43;10.30;;;3.10;;
52858;SDS011;38721;53.098;6.596;2022-11-03T06:21:13;10.65;;;2.70;;
52858;SDS011;38721;53.098;6.596;2022-11-03T06:23:45;9.13;;;3.25;;
52858;SDS011;38721;53.098;6.596;2022-11-03T06:26:19;10.15;;;2.97;;
52858;SDS011;38721;53.098;6.596;2022-11-03T06:28:47;11.35;;;2.70;;
52858;SDS011;38721;53.098;6.596;2022-11-03T06:31:20;7.47;;;2.70;;
52858;SDS011;38721;53.098;6.596;2022-11-03T06:33:51;12.85;;;2.97;;
52858;SDS011;38721;53.098;6.596;2022-11-03T06:36:19;14.93;;;2.85;;
52858;SDS011;38721;53.098;6.596;2022-11-03T06:38:50;13.40;;;3.08;;
52858;SDS011;38721;53.098;6.596;2022-11-03T06:41:26;9.10;;;3.85;;
52858;SDS011;38721;53.098;6.596;2022-11-03T06:43:53;8.40;;;2.97;;
52858;SDS011;38721;53.098;6.596;2022-11-03T06:46:21;8.80;;;2.70;;
52858;SDS011;38721;53.098;6.596;2022-11-03T06:48:48;7.55;;;2.92;;
52858;SDS011;38721;53.098;6.596;2022-11-03T06:51:20;7.53;;;2.65;;
52858;SDS011;38721;53.098;6.596;2022-11-03T06:53:51;11.63;;;3.17;;
52858;SDS011;38721;53.098;6.596;2022-11-03T06:56:19;8.02;;;3.30;;
52858;SDS011;38721;53.098;6.596;2022-11-03T06:58:47;12.82;;;3.85;;
52858;SDS011;38721;53.098;6.596;2022-11-03T07:01:15;7.82;;;2.80;;
52858;SDS011;38721;53.098;6.596;2022-11-03T07:03:57;7.22;;;2.90;;
52858;SDS011;38721;53.098;6.596;2022-11-03T07:06:27;9.63;;;3.08;;
52858;SDS011;38721;53.098;6.596;2022-11-03T07:08:56;12.35;;;3.45;;
52858;SDS011;38721;53.098;6.596;2022-11-03T07:11:33;10.43;;;3.47;;
52858;SDS011;38721;53.098;6.596;2022-11-03T07:14:11;12.20;;;3.30;;
52858;SDS011;38721;53.098;6.596;2022-11-03T07:16:41;13.57;;;3.42;;
52858;SDS011;38721;53.098;6.596;2022-11-03T07:19:12;13.20;;;3.42;;
52858;SDS011;38721;53.098;6.596;2022-11-03T07:21:48;11.48;;;3.47;;
52858;SDS011;38721;53.098;6.596;2022-11-03T07:24:21;12.95;;;3.72;;
52858;SDS011;38721;53.098;6.596;2022-11-03T07:29:59;7.45;;;2.97;;
52858;SDS011;38721;53.098;6.596;2022-11-03T07:32:53;9.38;;;3.10;;
52858;SDS011;38721;53.098;6.596;2022-11-03T07:35:32;11.25;;;3.50;;
52858;SDS011;38721;53.098;6.596;2022-11-03T07:38:02;11.05;;;3.13;;
52858;SDS011;38721;53.098;6.596;2022-11-03T07:40:35;9.18;;;3.03;;
52858;SDS011;38721;53.098;6.596;2022-11-03T07:43:15;13.13;;;3.40;;
52858;SDS011;38721;53.098;6.596;2022-11-03T07:45:50;10.27;;;3.33;;
52858;SDS011;38721;53.098;6.596;2022-11-03T07:48:18;8.10;;;3.17;;
52858;SDS011;38721;53.098;6.596;2022-11-03T07:50:44;11.55;;;4.15;;
52858;SDS011;38721;53.098;6.596;2022-11-03T07:53:41;12.07;;;3.10;;
52858;SDS011;38721;53.098;6.596;2022-11-03T07:56:12;9.77;;;3.28;;
52858;SDS011;38721;53.098;6.596;2022-11-03T08:01:30;12.60;;;3.10;;
52858;SDS011;38721;53.098;6.596;2022-11-03T08:04:05;10.32;;;3.03;;
52858;SDS011;38721;53.098;6.596;2022-11-03T08:06:37;10.18;;;3.47;;
52858;SDS011;38721;53.098;6.596;2022-11-03T08:09:02;13.40;;;3.10;;
52858;SDS011;38721;53.098;6.596;2022-11-03T08:11:28;13.38;;;3.35;;
52858;SDS011;38721;53.098;6.596;2022-11-03T08:13:54;8.73;;;3.53;;
52858;SDS011;38721;53.098;6.596;2022-11-03T08:16:20;8.18;;;3.63;;
52858;SDS011;38721;53.098;6.596;2022-11-03T08:18:46;12.40;;;3.80;;
52858;SDS011;38721;53.098;6.596;2022-11-03T08:21:12;10.50;;;2.95;;
52858;SDS011;38721;53.098;6.596;2022-11-03T08:23:38;9.52;;;3.03;;
52858;SDS011;38721;53.098;6.596;2022-11-03T08:26:04;11.30;;;3.47;;
52858;SDS011;38721;53.098;6.596;2022-11-03T08:28:31;13.45;;;4.18;;
52858;SDS011;38721;53.098;6.596;2022-11-03T08:30:57;12.00;;;3.15;;
52858;SDS011;38721;53.098;6.596;2022-11-03T08:33:31;9.10;;;3.03;;
52858;SDS011;38721;53.098;6.596;2022-11-03T08:35:57;9.45;;;3.17;;
52858;SDS011;38721;53.098;6.596;2022-11-03T08:38:24;10.18;;;3.22;;
52858;SDS011;38721;53.098;6.596;2022-11-03T08:40:50;11.95;;;3.22;;
52858;SDS011;38721;53.098;6.596;2022-11-03T08:43:16;11.05;;;2.95;;
52858;SDS011;38721;53.098;6.596;2022-11-03T08:45:42;8.10;;;2.95;;
52858;SDS011;38721;53.098;6.596;2022-11-03T08:48:07;10.27;;;2.80;;
52858;SDS011;38721;53.098;6.596;2022-11-03T08:50:36;8.10;;;3.00;;
52858;SDS011;38721;53.098;6.596;2022-11-03T08:53:02;10.38;;;3.35;;
52858;SDS011;38721;53.098;6.596;2022-11-03T08:55:28;11.23;;;3.25;;
52858;SDS011;38721;53.098;6.596;2022-11-03T08:57:53;10.38;;;3.30;;
52858;SDS011;38721;53.098;6.596;2022-11-03T09:00:19;14.60;;;3.58;;
52858;SDS011;38721;53.098;6.596;2022-11-03T09:02:45;8.77;;;3.10;;
52858;SDS011;38721;53.098;6.596;2022-11-03T09:05:11;11.45;;;2.95;;
52858;SDS011;38721;53.098;6.596;2022-11-03T09:07:38;9.70;;;3.30;;
52858;SDS011;38721;53.098;6.596;2022-11-03T09:10:05;11.88;;;3.28;;
52858;SDS011;38721;53.098;6.596;2022-11-03T09:12:32;9.95;;;3.47;;
52858;SDS011;38721;53.098;6.596;2022-11-03T09:14:58;10.25;;;3.58;;
52858;SDS011;38721;53.098;6.596;2022-11-03T09:17:24;9.68;;;3.00;;
52858;SDS011;38721;53.098;6.596;2022-11-03T09:19:49;10.05;;;3.03;;
52858;SDS011;38721;53.098;6.596;2022-11-03T09:22:15;7.53;;;2.92;;
52858;SDS011;38721;53.098;6.596;2022-11-03T09:24:44;9.88;;;3.38;;
52858;SDS011;38721;53.098;6.596;2022-11-03T09:27:09;13.00;;;4.35;;
52858;SDS011;38721;53.098;6.596;2022-11-03T09:29:35;7.50;;;3.17;;
52858;SDS011;38721;53.098;6.596;2022-11-03T09:32:01;13.32;;;3.97;;
52858;SDS011;38721;53.098;6.596;2022-11-03T09:34:26;11.25;;;2.92;;
52858;SDS011;38721;53.098;6.596;2022-11-03T09:36:53;10.30;;;3.13;;
52858;SDS011;38721;53.098;6.596;2022-11-03T09:39:18;10.48;;;3.65;;
52858;SDS011;38721;53.098;6.596;2022-11-03T09:41:44;8.57;;;3.25;;
52858;SDS011;38721;53.098;6.596;2022-11-03T09:44:13;10.57;;;3.42;;
52858;SDS011;38721;53.098;6.596;2022-11-03T09:46:39;10.70;;;3.50;;
52858;SDS011;38721;53.098;6.596;2022-11-03T09:49:05;12.68;;;3.10;;
52858;SDS011;38721;53.098;6.596;2022-11-03T09:51:31;11.23;;;3.45;;
52858;SDS011;38721;53.098;6.596;2022-11-03T09:54:00;9.63;;;3.22;;
52858;SDS011;38721;53.098;6.596;2022-11-03T09:56:28;8.90;;;3.15;;
52858;SDS011;38721;53.098;6.596;2022-11-03T09:58:55;5.72;;;2.97;;
52858;SDS011;38721;53.098;6.596;2022-11-03T10:01:21;10.90;;;3.40;;
52858;SDS011;38721;53.098;6.596;2022-11-03T10:03:47;8.57;;;3.20;;
52858;SDS011;38721;53.098;6.596;2022-11-03T10:06:13;7.47;;;3.03;;
52858;SDS011;38721;53.098;6.596;2022-11-03T10:08:42;8.73;;;3.10;;
52858;SDS011;38721;53.098;6.596;2022-11-03T10:11:10;13.85;;;4.05;;
52858;SDS011;38721;53.098;6.596;2022-11-03T10:13:40;8.38;;;2.50;;
52858;SDS011;38721;53.098;6.596;2022-11-03T10:16:13;11.88;;;3.13;;
52858;SDS011;38721;53.098;6.596;2022-11-03T10:18:42;11.15;;;3.15;;
52858;SDS011;38721;53.098;6.596;2022-11-03T10:21:19;9.43;;;3.17;;
52858;SDS011;38721;53.098;6.596;2022-11-03T10:23:48;9.25;;;3.47;;
52858;SDS011;38721;53.098;6.596;2022-11-03T10:26:15;11.95;;;3.10;;
52858;SDS011;38721;53.098;6.596;2022-11-03T10:31:33;9.98;;;3.05;;
52858;SDS011;38721;53.098;6.596;2022-11-03T10:34:21;8.15;;;2.90;;
52858;SDS011;38721;53.098;6.596;2022-11-03T10:39:52;8.20;;;2.95;;
52858;SDS011;38721;53.098;6.596;2022-11-03T10:42:23;8.82;;;2.80;;
52858;SDS011;38721;53.098;6.596;2022-11-03T10:44:54;8.88;;;2.83;;
52858;SDS011;38721;53.098;6.596;2022-11-03T10:47:41;9.82;;;2.83;;
52858;SDS011;38721;53.098;6.596;2022-11-03T10:50:23;10.02;;;2.83;;
52858;SDS011;38721;53.098;6.596;2022-11-03T10:52:50;11.02;;;3.10;;
52858;SDS011;38721;53.098;6.596;2022-11-03T10:55:17;11.88;;;2.85;;
52858;SDS011;38721;53.098;6.596;2022-11-03T10:57:43;9.63;;;2.65;;
52858;SDS011;38721;53.098;6.596;2022-11-03T11:00:17;15.52;;;3.47;;
52858;SDS011;38721;53.098;6.596;2022-11-03T11:02:43;7.93;;;2.50;;
52858;SDS011;38721;53.098;6.596;2022-11-03T11:05:18;7.45;;;2.58;;
52858;SDS011;38721;53.098;6.596;2022-11-03T11:07:46;9.80;;;2.47;;
52858;SDS011;38721;53.098;6.596;2022-11-03T11:10:19;6.78;;;2.60;;
52858;SDS011;38721;53.098;6.596;2022-11-03T11:23:42;6.07;;;2.53;;
52858;SDS011;38721;53.098;6.596;2022-11-03T11:28:44;6.30;;;2.55;;
52858;SDS011;38721;53.098;6.596;2022-11-03T11:31:30;10.88;;;2.58;;
52858;SDS011;38721;53.098;6.596;2022-11-03T11:36:40;6.65;;;2.53;;
52858;SDS011;38721;53.098;6.596;2022-11-03T11:49:48;7.43;;;2.45;;
52858;SDS011;38721;53.098;6.596;2022-11-03T11:52:24;8.82;;;2.30;;
52858;SDS011;38721;53.098;6.596;2022-11-03T11:54:51;10.95;;;3.08;;
52858;SDS011;38721;53.098;6.596;2022-11-03T11:57:18;6.30;;;2.28;;
52858;SDS011;38721;53.098;6.596;2022-11-03T11:59:46;8.57;;;2.20;;
52858;SDS011;38721;53.098;6.596;2022-11-03T12:02:16;6.78;;;2.20;;
52858;SDS011;38721;53.098;6.596;2022-11-03T12:04:47;7.35;;;2.40;;
52858;SDS011;38721;53.098;6.596;2022-11-03T12:07:30;9.00;;;2.38;;
52858;SDS011;38721;53.098;6.596;2022-11-03T12:10:11;8.95;;;2.45;;
52858;SDS011;38721;53.098;6.596;2022-11-03T12:12:39;7.30;;;2.40;;
52858;SDS011;38721;53.098;6.596;2022-11-03T12:15:04;4.47;;;2.15;;
52858;SDS011;38721;53.098;6.596;2022-11-03T12:17:50;10.65;;;2.67;;
52858;SDS011;38721;53.098;6.596;2022-11-03T12:20:42;7.03;;;2.20;;
52858;SDS011;38721;53.098;6.596;2022-11-03T12:23:30;10.10;;;2.20;;
52858;SDS011;38721;53.098;6.596;2022-11-03T12:28:51;6.60;;;2.10;;
52858;SDS011;38721;53.098;6.596;2022-11-03T12:31:17;7.68;;;2.35;;
52858;SDS011;38721;53.098;6.596;2022-11-03T12:33:43;7.10;;;2.03;;
52858;SDS011;38721;53.098;6.596;2022-11-03T12:36:08;6.32;;;2.45;;
52858;SDS011;38721;53.098;6.596;2022-11-03T12:38:34;4.75;;;2.28;;
52858;SDS011;38721;53.098;6.596;2022-11-03T12:41:00;10.27;;;2.55;;
52858;SDS011;38721;53.098;6.596;2022-11-03T12:43:45;6.00;;;2.27;;
52858;SDS011;38721;53.098;6.596;2022-11-03T12:46:15;7.97;;;2.80;;
52858;SDS011;38721;53.098;6.596;2022-11-03T12:48:42;6.70;;;2.30;;
52858;SDS011;38721;53.098;6.596;2022-11-03T12:51:11;5.75;;;2.00;;
52858;SDS011;38721;53.098;6.596;2022-11-03T12:53:38;6.68;;;2.17;;
52858;SDS011;38721;53.098;6.596;2022-11-03T12:56:05;9.35;;;2.20;;
52858;SDS011;38721;53.098;6.596;2022-11-03T12:58:32;7.43;;;1.98;;
52858;SDS011;38721;53.098;6.596;2022-11-03T13:00:58;7.50;;;2.75;;
52858;SDS011;38721;53.098;6.596;2022-11-03T13:03:23;8.05;;;2.20;;
52858;SDS011;38721;53.098;6.596;2022-11-03T13:05:49;5.45;;;1.92;;
52858;SDS011;38721;53.098;6.596;2022-11-03T13:08:15;4.40;;;2.20;;
52858;SDS011;38721;53.098;6.596;2022-11-03T13:10:40;9.35;;;2.38;;
52858;SDS011;38721;53.098;6.596;2022-11-03T13:13:06;8.63;;;2.60;;
52858;SDS011;38721;53.098;6.596;2022-11-03T13:15:32;7.93;;;2.20;;
52858;SDS011;38721;53.098;6.596;2022-11-03T13:17:58;7.05;;;2.17;;
52858;SDS011;38721;53.098;6.596;2022-11-03T13:20:23;7.75;;;2.33;;
52858;SDS011;38721;53.098;6.596;2022-11-03T13:22:49;9.43;;;2.40;;
52858;SDS011;38721;53.098;6.596;2022-11-03T13:25:15;8.25;;;2.53;;
52858;SDS011;38721;53.098;6.596;2022-11-03T13:27:42;6.03;;;2.50;;
52858;SDS011;38721;53.098;6.596;2022-11-03T13:30:08;6.05;;;2.70;;
52858;SDS011;38721;53.098;6.596;2022-11-03T13:32:36;6.82;;;2.55;;
52858;SDS011;38721;53.098;6.596;2022-11-03T13:35:02;9.20;;;2.70;;
52858;SDS011;38721;53.098;6.596;2022-11-03T13:37:28;6.30;;;2.20;;
52858;SDS011;38721;53.098;6.596;2022-11-03T13:39:53;6.25;;;2.67;;
52858;SDS011;38721;53.098;6.596;2022-11-03T13:42:19;5.82;;;1.77;;
52858;SDS011;38721;53.098;6.596;2022-11-03T13:44:45;7.07;;;2.42;;
52858;SDS011;38721;53.098;6.596;2022-11-03T13:47:10;4.20;;;1.98;;
52858;SDS011;38721;53.098;6.596;2022-11-03T13:49:36;7.10;;;1.92;;
52858;SDS011;38721;53.098;6.596;2022-11-03T13:52:02;7.35;;;2.30;;
52858;SDS011;38721;53.098;6.596;2022-11-03T13:54:28;6.00;;;2.13;;
52858;SDS011;38721;53.098;6.596;2022-11-03T13:56:54;6.35;;;2.05;;
52858;SDS011;38721;53.098;6.596;2022-11-03T13:59:20;4.15;;;2.00;;
52858;SDS011;38721;53.098;6.596;2022-11-03T14:01:45;6.25;;;2.28;;
52858;SDS011;38721;53.098;6.596;2022-11-03T14:04:11;7.53;;;2.20;;
52858;SDS011;38721;53.098;6.596;2022-11-03T14:06:36;6.60;;;2.25;;
52858;SDS011;38721;53.098;6.596;2022-11-03T14:09:02;7.28;;;2.20;;
52858;SDS011;38721;53.098;6.596;2022-11-03T14:11:28;8.25;;;3.20;;
52858;SDS011;38721;53.098;6.596;2022-11-03T14:14:12;7.25;;;3.00;;
52858;SDS011;38721;53.098;6.596;2022-11-03T14:16:37;6.22;;;1.83;;
52858;SDS011;38721;53.098;6.596;2022-11-03T14:19:03;5.55;;;2.10;;
52858;SDS011;38721;53.098;6.596;2022-11-03T14:21:30;7.38;;;2.55;;
52858;SDS011;38721;53.098;6.596;2022-11-03T14:23:55;6.30;;;2.08;;
52858;SDS011;38721;53.098;6.596;2022-11-03T14:26:21;7.30;;;2.10;;
52858;SDS011;38721;53.098;6.596;2022-11-03T14:28:48;8.05;;;2.40;;
52858;SDS011;38721;53.098;6.596;2022-11-03T14:31:13;5.47;;;2.20;;
52858;SDS011;38721;53.098;6.596;2022-11-03T14:33:39;8.13;;;2.35;;
52858;SDS011;38721;53.098;6.596;2022-11-03T14:36:05;4.32;;;1.77;;
52858;SDS011;38721;53.098;6.596;2022-11-03T14:38:30;6.65;;;2.30;;
52858;SDS011;38721;53.098;6.596;2022-11-03T14:40:56;6.15;;;2.00;;
52858;SDS011;38721;53.098;6.596;2022-11-03T14:43:40;8.80;;;2.25;;
52858;SDS011;38721;53.098;6.596;2022-11-03T14:46:06;8.40;;;2.33;;
52858;SDS011;38721;53.098;6.596;2022-11-03T14:48:31;11.65;;;2.30;;
52858;SDS011;38721;53.098;6.596;2022-11-03T14:50:57;8.63;;;2.40;;
52858;SDS011;38721;53.098;6.596;2022-11-03T14:53:22;4.47;;;2.05;;
52858;SDS011;38721;53.098;6.596;2022-11-03T14:55:48;5.63;;;2.03;;
52858;SDS011;38721;53.098;6.596;2022-11-03T14:58:14;6.53;;;2.05;;
52858;SDS011;38721;53.098;6.596;2022-11-03T15:00:39;3.97;;;1.77;;
52858;SDS011;38721;53.098;6.596;2022-11-03T15:03:08;6.63;;;2.05;;
52858;SDS011;38721;53.098;6.596;2022-11-03T15:05:33;6.13;;;2.00;;
52858;SDS011;38721;53.098;6.596;2022-11-03T15:08:08;6.20;;;2.20;;
52858;SDS011;38721;53.098;6.596;2022-11-03T15:10:35;6.88;;;1.90;;
52858;SDS011;38721;53.098;6.596;2022-11-03T15:13:00;6.10;;;2.08;;
52858;SDS011;38721;53.098;6.596;2022-11-03T15:15:26;8.07;;;2.22;;
52858;SDS011;38721;53.098;6.596;2022-11-03T15:17:52;4.80;;;1.85;;
52858;SDS011;38721;53.098;6.596;2022-11-03T15:20:17;11.25;;;3.10;;
52858;SDS011;38721;53.098;6.596;2022-11-03T15:22:43;7.10;;;2.10;;
52858;SDS011;38721;53.098;6.596;2022-11-03T15:25:10;6.93;;;2.10;;
52858;SDS011;38721;53.098;6.596;2022-11-03T15:27:36;6.40;;;1.98;;
52858;SDS011;38721;53.098;6.596;2022-11-03T15:30:03;7.13;;;2.30;;
52858;SDS011;38721;53.098;6.596;2022-11-03T15:32:31;6.32;;;1.95;;
52858;SDS011;38721;53.098;6.596;2022-11-03T15:34:57;5.90;;;2.35;;
52858;SDS011;38721;53.098;6.596;2022-11-03T15:37:24;6.57;;;1.85;;
52858;SDS011;38721;53.098;6.596;2022-11-03T15:39:49;5.43;;;2.00;;
52858;SDS011;38721;53.098;6.596;2022-11-03T15:42:15;8.88;;;2.13;;
52858;SDS011;38721;53.098;6.596;2022-11-03T15:44:44;5.35;;;2.00;;
52858;SDS011;38721;53.098;6.596;2022-11-03T15:47:10;5.95;;;1.90;;
52858;SDS011;38721;53.098;6.596;2022-11-03T15:49:35;5.57;;;2.08;;
52858;SDS011;38721;53.098;6.596;2022-11-03T15:52:01;7.03;;;2.20;;
52858;SDS011;38721;53.098;6.596;2022-11-03T15:54:27;5.57;;;2.08;;
52858;SDS011;38721;53.098;6.596;2022-11-03T15:56:53;6.97;;;2.00;;
52858;SDS011;38721;53.098;6.596;2022-11-03T15:59:19;7.88;;;2.58;;
52858;SDS011;38721;53.098;6.596;2022-11-03T16:01:44;8.10;;;2.15;;
52858;SDS011;38721;53.098;6.596;2022-11-03T16:04:10;5.60;;;2.03;;
52858;SDS011;38721;53.098;6.596;2022-11-03T16:06:35;7.90;;;2.10;;
52858;SDS011;38721;53.098;6.596;2022-11-03T16:09:01;6.25;;;2.15;;